createdAt,value
2023-03-24T00:00:20.584Z,99465.03
2023-03-24T00:02:49.106Z,99473.78
2023-03-24T00:05:21.623Z,99464.44
2023-03-24T00:07:54.775Z,99469.69
2023-03-24T00:10:22.709Z,99458.22
2023-03-24T00:12:51.015Z,99452.09
2023-03-24T00:15:21.180Z,99443.66
2023-03-24T00:17:51.819Z,99448.44
2023-03-24T00:20:20.842Z,99430.25
2023-03-24T00:22:51.082Z,99426.19
2023-03-24T00:25:20.302Z,99432.09
2023-03-24T00:27:48.859Z,99435.66
2023-03-24T00:30:17.508Z,99424.34
2023-03-24T00:32:45.116Z,99425.41
2023-03-24T00:35:14.775Z,99420.03
2023-03-24T00:37:42.831Z,99422.78
2023-03-24T00:40:13.101Z,99404.50
2023-03-24T00:42:41.332Z,99419.25
2023-03-24T00:45:12.127Z,99410.38
2023-03-24T00:47:39.222Z,99392.97
2023-03-24T00:50:09.768Z,99401.66
2023-03-24T00:52:37.896Z,99401.03
2023-03-24T00:55:06.218Z,99391.13
2023-03-24T00:57:35.979Z,99377.84
2023-03-24T01:00:14.633Z,99392.22
2023-03-24T01:02:43.912Z,99393.91
2023-03-24T01:05:11.247Z,99372.16
2023-03-24T01:07:41.549Z,99365.84
2023-03-24T01:10:13.084Z,99376.56
2023-03-24T01:12:40.880Z,99368.03
2023-03-24T01:15:19.921Z,99370.78
2023-03-24T01:17:48.682Z,99361.22
2023-03-24T01:20:16.173Z,99352.13
2023-03-24T01:22:45.042Z,99358.22
2023-03-24T01:25:17.809Z,99357.13
2023-03-24T01:27:46.629Z,99354.59
2023-03-24T01:30:16.108Z,99338.94
2023-03-24T01:32:43.954Z,99331.13
2023-03-24T01:35:11.806Z,99332.91
2023-03-24T01:37:39.265Z,99335.59
2023-03-24T01:40:11.357Z,99320.03
2023-03-24T01:42:39.560Z,99322.63
2023-03-24T01:45:38.610Z,99312.78
2023-03-24T01:48:15.493Z,99310.88
2023-03-24T01:50:46.667Z,99305.94
2023-03-24T01:53:13.700Z,99303.34
2023-03-24T01:55:40.542Z,99290.91
2023-03-24T01:58:08.841Z,99284.16
2023-03-24T02:00:51.202Z,99279.97
2023-03-24T02:03:40.115Z,99281.78
2023-03-24T02:06:08.678Z,99273.00
2023-03-24T02:08:50.748Z,99272.13
2023-03-24T02:11:17.495Z,99273.91
2023-03-24T02:13:51.506Z,99279.06
2023-03-24T02:16:33.011Z,99273.84
2023-03-24T02:19:25.204Z,99272.41
2023-03-24T02:22:26.414Z,99264.13
2023-03-24T02:25:44.103Z,99258.13
2023-03-24T02:28:27.995Z,99254.63
2023-03-24T02:31:16.291Z,99249.38
2023-03-24T02:34:13.543Z,99242.25
2023-03-24T02:36:55.402Z,99232.88
2023-03-24T02:39:53.293Z,99230.13
2023-03-24T02:42:40.153Z,99229.94
2023-03-24T02:45:12.912Z,99211.00
2023-03-24T02:47:58.163Z,99212.50
2023-03-24T02:50:53.838Z,99201.25
2023-03-24T02:53:33.009Z,99198.72
2023-03-24T02:56:33.407Z,99197.56
2023-03-24T02:59:32.542Z,99187.00
2023-03-24T03:02:08.605Z,99186.28
2023-03-24T03:04:57.960Z,99183.78
2023-03-24T03:07:27.370Z,99163.53
2023-03-24T03:10:02.415Z,99179.59
2023-03-24T03:12:34.786Z,99168.97
2023-03-24T03:15:15.970Z,99170.66
2023-03-24T03:17:53.506Z,99159.34
2023-03-24T03:20:24.296Z,99161.94
2023-03-24T03:23:00.855Z,99158.94
2023-03-24T03:25:33.174Z,99148.72
2023-03-24T03:28:03.680Z,99144.81
2023-03-24T03:30:40.129Z,99138.09
2023-03-24T03:33:13.258Z,99133.63
2023-03-24T03:36:02.956Z,99131.97
2023-03-24T03:39:09.703Z,99128.41
2023-03-24T03:41:38.606Z,99120.41
2023-03-24T03:44:05.517Z,99117.03
2023-03-24T03:46:32.623Z,99122.47
2023-03-24T03:48:59.859Z,99117.38
2023-03-24T03:51:27.148Z,99113.53
2023-03-24T03:54:01.157Z,99115.38
2023-03-24T03:56:32.560Z,99105.72
2023-03-24T03:59:35.453Z,99100.44
2023-03-24T04:02:28.219Z,99100.00
2023-03-24T04:05:14.695Z,99109.50
2023-03-24T04:08:03.569Z,99114.50
2023-03-24T04:11:17.957Z,99110.78
2023-03-24T04:14:22.925Z,99104.63
2023-03-24T04:17:41.650Z,99111.81
2023-03-24T04:20:14.728Z,99113.25
2023-03-24T04:23:09.356Z,99105.44
2023-03-24T04:25:49.878Z,99095.09
2023-03-24T04:28:26.513Z,99094.56
2023-03-24T04:31:28.103Z,99103.84
2023-03-24T04:34:07.606Z,99108.91
2023-03-24T04:37:04.069Z,99106.53
2023-03-24T04:39:58.895Z,99100.97
2023-03-24T04:42:36.129Z,99109.31
2023-03-24T04:45:05.756Z,99114.75
2023-03-24T04:48:00.254Z,99113.13
2023-03-24T04:50:40.484Z,99111.09
2023-03-24T04:53:13.332Z,99101.34
2023-03-24T04:55:49.472Z,99100.50
2023-03-24T04:58:22.884Z,99100.78
2023-03-24T05:00:50.435Z,99089.72
2023-03-24T05:03:18.767Z,99093.56
2023-03-24T05:05:48.365Z,99103.91
2023-03-24T05:08:16.561Z,99105.63
2023-03-24T05:10:43.749Z,99095.97
2023-03-24T05:13:11.494Z,99098.72
2023-03-24T05:15:40.579Z,99111.75
2023-03-24T05:18:27.405Z,99103.84
2023-03-24T05:20:56.351Z,99114.66
2023-03-24T05:23:23.216Z,99114.66
2023-03-24T05:25:50.666Z,99117.97
2023-03-24T05:28:19.269Z,99116.06
2023-03-24T05:30:46.708Z,99112.22
2023-03-24T05:33:33.649Z,99112.06
2023-03-24T05:36:01.248Z,99121.97
2023-03-24T05:38:28.350Z,99141.28
2023-03-24T05:40:58.189Z,99157.53
2023-03-24T05:43:28.544Z,99167.44
2023-03-24T05:46:03.998Z,99185.56
2023-03-24T05:48:33.082Z,99184.56
2023-03-24T05:51:17.677Z,99190.78
2023-03-24T05:53:45.936Z,99192.25
2023-03-24T05:56:15.492Z,99198.41
2023-03-24T05:58:58.772Z,99208.94
2023-03-24T06:01:43.345Z,99204.03
2023-03-24T06:04:21.078Z,99210.59
2023-03-24T06:06:49.457Z,99228.94
2023-03-24T06:09:20.342Z,99224.72
2023-03-24T06:11:47.126Z,99229.50
2023-03-24T06:14:14.746Z,99247.69
2023-03-24T06:16:53.321Z,99276.38
2023-03-24T06:19:22.615Z,99264.66
2023-03-24T06:22:02.956Z,99274.47
2023-03-24T06:24:34.419Z,99289.31
2023-03-24T06:27:08.948Z,99300.72
2023-03-24T06:29:36.494Z,99307.53
2023-03-24T06:32:03.599Z,99307.22
2023-03-24T06:34:38.850Z,99333.06
2023-03-24T06:37:16.918Z,99338.66
2023-03-24T06:39:43.978Z,99334.97
2023-03-24T06:42:14.680Z,99339.50
2023-03-24T06:44:42.022Z,99338.75
2023-03-24T06:47:08.718Z,99343.03
2023-03-24T06:49:37.146Z,99362.22
2023-03-24T06:52:04.782Z,99368.59
2023-03-24T06:54:34.300Z,99376.34
2023-03-24T06:57:01.932Z,99381.81
2023-03-24T06:59:49.163Z,99381.63
2023-03-24T07:02:15.914Z,99377.84
2023-03-24T07:04:45.796Z,99381.25
2023-03-24T07:10:14.204Z,99386.84
2023-03-24T07:12:41.510Z,99399.00
2023-03-24T07:15:09.382Z,99386.19
2023-03-24T07:17:36.349Z,99400.91
2023-03-24T07:20:12.424Z,99395.56
2023-03-24T07:22:42.413Z,99409.56
2023-03-24T07:25:24.560Z,99419.88
2023-03-24T07:28:14.319Z,99422.25
2023-03-24T07:30:41.748Z,99429.16
2023-03-24T07:33:12.744Z,99414.13
2023-03-24T07:35:41.930Z,99433.41
2023-03-24T07:38:10.648Z,99434.28
2023-03-24T07:40:37.889Z,99435.78
2023-03-24T07:43:05.882Z,99434.78
2023-03-24T07:45:51.610Z,99447.19
2023-03-24T07:48:18.407Z,99443.72
2023-03-24T07:50:45.362Z,99438.22
2023-03-24T07:53:33.822Z,99435.84
2023-03-24T07:56:00.809Z,99450.41
2023-03-24T07:58:27.944Z,99433.13
2023-03-24T08:01:10.478Z,99426.84
2023-03-24T08:03:42.575Z,99435.47
2023-03-24T08:06:15.640Z,99431.28
2023-03-24T08:08:50.504Z,99452.19
2023-03-24T08:11:17.157Z,99464.41
2023-03-24T08:13:43.793Z,99455.31
2023-03-24T08:16:10.589Z,99458.16
2023-03-24T08:18:37.198Z,99455.56
2023-03-24T08:21:03.861Z,99455.25
2023-03-24T08:23:30.445Z,99440.09
2023-03-24T08:25:57.318Z,99455.63
2023-03-24T08:28:23.986Z,99469.56
2023-03-24T08:30:50.868Z,99479.81
2023-03-24T08:33:17.943Z,99475.09
2023-03-24T08:35:48.234Z,99477.19
2023-03-24T08:38:18.577Z,99482.66
2023-03-24T08:40:45.985Z,99478.78
2023-03-24T08:43:15.996Z,99491.94
2023-03-24T08:45:42.943Z,99498.13
2023-03-24T08:48:09.982Z,99499.09
2023-03-24T08:50:41.014Z,99494.72
2023-03-24T08:53:08.782Z,99492.91
2023-03-24T08:55:37.891Z,99511.41
2023-03-24T08:58:04.777Z,99509.25
2023-03-24T09:00:31.524Z,99513.31
2023-03-24T09:02:58.665Z,99511.63
2023-03-24T09:05:40.685Z,99506.56
2023-03-24T09:08:12.381Z,99510.59
2023-03-24T09:10:39.951Z,99517.31
2023-03-24T09:13:07.018Z,99498.72
2023-03-24T09:15:33.732Z,99506.41
2023-03-24T09:18:00.827Z,99509.63
2023-03-24T09:20:27.474Z,99492.91
2023-03-24T09:22:55.851Z,99499.66
2023-03-24T09:25:23.812Z,99492.75
2023-03-24T09:27:50.453Z,99505.31
2023-03-24T09:30:18.216Z,99506.84
2023-03-24T09:32:45.879Z,99496.44
2023-03-24T09:35:13.179Z,99499.53
2023-03-24T09:37:41.119Z,99495.81
2023-03-24T09:40:08.246Z,99506.41
2023-03-24T09:42:41.541Z,99504.09
2023-03-24T09:45:18.165Z,99503.56
2023-03-24T09:47:52.542Z,99508.56
2023-03-24T09:50:43.307Z,99503.69
2023-03-24T09:53:29.235Z,99499.97
2023-03-24T09:55:57.379Z,99511.81
2023-03-24T09:58:29.671Z,99506.53
2023-03-24T10:00:57.620Z,99514.25
2023-03-24T10:03:24.494Z,99506.25
2023-03-24T10:06:26.664Z,99513.16
2023-03-24T10:09:15.762Z,99514.09
2023-03-24T10:12:00.610Z,99512.03
2023-03-24T10:14:45.351Z,99512.09
2023-03-24T10:17:23.934Z,99509.16
2023-03-24T10:20:09.389Z,99521.03
2023-03-24T10:22:54.623Z,99511.69
2023-03-24T10:25:30.953Z,99511.09
2023-03-24T10:28:16.865Z,99523.19
2023-03-24T10:30:46.228Z,99524.53
2023-03-24T10:33:15.022Z,99529.06
2023-03-24T10:35:51.745Z,99530.09
2023-03-24T10:38:21.272Z,99532.28
2023-03-24T10:40:48.908Z,99531.63
2023-03-24T10:43:19.492Z,99543.09
2023-03-24T10:45:52.443Z,99547.72
2023-03-24T10:48:43.176Z,99545.53
2023-03-24T10:51:19.416Z,99550.44
2023-03-24T10:53:48.701Z,99555.25
2023-03-24T10:56:38.306Z,99544.72
2023-03-24T10:59:19.050Z,99548.88
2023-03-24T11:01:46.671Z,99553.00
2023-03-24T11:04:16.898Z,99549.84
2023-03-24T11:07:11.243Z,99555.56
2023-03-24T11:09:46.521Z,99561.41
2023-03-24T11:12:28.102Z,99543.66
2023-03-24T11:15:20.981Z,99555.56
2023-03-24T11:18:01.823Z,99558.78
2023-03-24T11:20:43.818Z,99563.66
2023-03-24T11:23:31.315Z,99568.88
2023-03-24T11:26:06.950Z,99567.81
2023-03-24T11:28:39.267Z,99577.19
2023-03-24T11:31:09.130Z,99576.41
2023-03-24T11:34:02.770Z,99568.44
2023-03-24T11:36:38.249Z,99574.97
2023-03-24T11:39:18.018Z,99568.13
2023-03-24T11:42:03.347Z,99566.75
2023-03-24T11:44:49.298Z,99572.47
2023-03-24T11:47:32.584Z,99571.28
2023-03-24T11:50:12.100Z,99575.78
2023-03-24T11:52:46.608Z,99582.59
2023-03-24T11:55:37.808Z,99583.97
2023-03-24T11:58:21.517Z,99583.56
2023-03-24T12:01:04.432Z,99579.84
2023-03-24T12:04:02.517Z,99562.06
2023-03-24T12:07:07.610Z,99576.63
2023-03-24T12:10:06.225Z,99566.00
2023-03-24T12:13:08.371Z,99569.22
2023-03-24T12:15:50.736Z,99567.94
2023-03-24T12:18:41.520Z,99567.59
2023-03-24T12:21:19.475Z,99561.09
2023-03-24T12:23:59.628Z,99572.34
2023-03-24T12:26:31.140Z,99577.16
2023-03-24T12:29:29.799Z,99569.59
2023-03-24T12:32:24.875Z,99556.41
2023-03-24T12:35:06.718Z,99558.28
2023-03-24T12:37:52.583Z,99568.75
2023-03-24T12:40:40.926Z,99563.72
2023-03-24T12:43:29.885Z,99553.16
2023-03-24T12:46:00.042Z,99563.91
2023-03-24T12:48:36.068Z,99568.16
2023-03-24T12:51:35.601Z,99560.06
2023-03-24T12:54:17.337Z,99554.91
2023-03-24T12:57:08.144Z,99556.03
2023-03-24T12:59:41.626Z,99555.13
2023-03-24T13:02:21.565Z,99545.72
2023-03-24T13:04:49.504Z,99545.56
2023-03-24T13:07:25.916Z,99556.16
2023-03-24T13:10:19.079Z,99565.06
2023-03-24T13:13:24.514Z,99553.59
2023-03-24T13:16:17.640Z,99561.53
2023-03-24T13:18:51.681Z,99559.94
2023-03-24T13:21:21.212Z,99557.66
2023-03-24T13:23:59.342Z,99571.97
2023-03-24T13:26:39.778Z,99551.50
2023-03-24T13:29:24.831Z,99558.16
2023-03-24T13:31:57.710Z,99552.00
2023-03-24T13:34:30.031Z,99550.75
2023-03-24T13:37:06.606Z,99556.09
2023-03-24T13:39:36.484Z,99542.16
2023-03-24T13:42:03.927Z,99539.16
2023-03-24T13:44:38.516Z,99537.53
2023-03-24T13:47:06.849Z,99531.50
2023-03-24T13:49:34.203Z,99537.16
2023-03-24T13:52:06.551Z,99537.38
2023-03-24T13:54:37.676Z,99539.09
2023-03-24T13:57:08.467Z,99548.38
2023-03-24T14:00:08.602Z,99533.66
2023-03-24T14:02:49.938Z,99542.94
2023-03-24T14:05:23.948Z,99536.94
2023-03-24T14:08:11.663Z,99540.56
2023-03-24T14:10:44.536Z,99538.75
2023-03-24T14:13:14.174Z,99533.97
2023-03-24T14:15:45.380Z,99535.88
2023-03-24T14:18:22.547Z,99540.25
2023-03-24T14:20:58.351Z,99531.09
2023-03-24T14:23:45.730Z,99531.13
2023-03-24T14:26:12.376Z,99541.28
2023-03-24T14:28:50.561Z,99534.16
2023-03-24T14:31:29.014Z,99531.13
2023-03-24T14:34:03.478Z,99522.72
2023-03-24T14:36:40.033Z,99531.47
2023-03-24T14:39:21.524Z,99529.06
2023-03-24T14:41:51.965Z,99518.22
2023-03-24T14:44:47.078Z,99530.84
2023-03-24T14:47:20.258Z,99537.03
2023-03-24T14:49:48.705Z,99526.91
2023-03-24T14:52:24.392Z,99519.34
2023-03-24T14:54:59.429Z,99532.50
2023-03-24T14:57:32.261Z,99540.56
2023-03-24T15:00:11.809Z,99605.03
2023-03-24T15:02:50.880Z,99649.91
2023-03-24T15:05:23.126Z,99643.38
2023-03-24T15:08:13.734Z,99633.41
2023-03-24T15:10:58.269Z,99649.16
2023-03-24T15:13:30.264Z,99650.88
2023-03-24T15:15:57.754Z,99658.63
2023-03-24T15:18:25.746Z,99637.09
2023-03-24T15:20:53.386Z,99643.19
2023-03-24T15:23:31.384Z,99639.66
2023-03-24T15:25:58.043Z,99644.03
2023-03-24T15:28:26.716Z,99636.97
2023-03-24T15:30:56.039Z,99636.22
2023-03-24T15:33:23.448Z,99630.06
2023-03-24T15:35:56.678Z,99628.34
2023-03-24T15:38:32.911Z,99635.28
2023-03-24T15:40:59.498Z,99631.69
2023-03-24T15:43:26.096Z,99631.56
2023-03-24T15:46:04.573Z,99628.16
2023-03-24T15:48:38.170Z,99619.28
2023-03-24T15:51:08.726Z,99601.03
2023-03-24T15:53:44.363Z,99599.41
2023-03-24T15:56:31.969Z,99601.72
2023-03-24T15:59:13.759Z,99597.28
2023-03-24T16:01:44.015Z,99594.88
2023-03-24T16:04:15.927Z,99586.75
2023-03-24T16:06:50.093Z,99579.78
2023-03-24T16:09:27.473Z,99580.63
2023-03-24T16:11:54.455Z,99581.38
2023-03-24T16:14:25.720Z,99591.97
2023-03-24T16:16:57.270Z,99592.94
2023-03-24T16:19:25.308Z,99597.81
2023-03-24T16:21:52.010Z,99620.25
2023-03-24T16:24:18.606Z,99619.53
2023-03-24T16:26:46.196Z,99605.69
2023-03-24T16:29:23.615Z,99591.59
2023-03-24T16:31:52.389Z,99601.13
2023-03-24T16:34:21.204Z,99609.22
2023-03-24T16:36:49.616Z,99603.13
2023-03-24T16:39:19.345Z,99608.19
2023-03-24T16:41:46.364Z,99615.22
2023-03-24T16:44:13.496Z,99613.56
2023-03-24T16:46:41.198Z,99617.09
2023-03-24T16:49:11.502Z,99614.72
2023-03-24T16:51:38.202Z,99615.28
2023-03-24T16:54:04.927Z,99602.97
2023-03-24T16:56:31.755Z,99602.97
2023-03-24T16:58:58.472Z,99616.84
2023-03-24T17:01:33.405Z,99611.44
2023-03-24T17:04:01.776Z,99610.53
2023-03-24T17:06:30.770Z,99623.72
2023-03-24T17:08:58.141Z,99623.84
2023-03-24T17:11:36.618Z,99635.78
2023-03-24T17:14:05.545Z,99635.25
2023-03-24T17:16:36.732Z,99632.53
2023-03-24T17:19:06.867Z,99624.59
2023-03-24T17:21:47.354Z,99634.22
2023-03-24T17:24:14.369Z,99623.72
2023-03-24T17:26:42.410Z,99638.50
2023-03-24T17:29:13.465Z,99628.81
2023-03-24T17:31:42.976Z,99632.50
2023-03-24T17:34:21.463Z,99630.66
2023-03-24T17:36:50.527Z,99629.59
2023-03-24T17:39:18.624Z,99628.94
2023-03-24T17:41:45.592Z,99620.19
2023-03-24T17:44:12.300Z,99623.59
2023-03-24T17:46:39.037Z,99623.53
2023-03-24T17:49:06.346Z,99623.75
2023-03-24T17:51:33.100Z,99628.03
2023-03-24T17:53:59.940Z,99624.91
2023-03-24T17:56:26.944Z,99619.59
2023-03-24T17:58:55.117Z,99629.22
2023-03-24T18:01:22.194Z,99629.09
2023-03-24T18:03:49.797Z,99629.16
2023-03-24T18:06:17.187Z,99621.34
2023-03-24T18:08:44.352Z,99624.91
2023-03-24T18:11:14.996Z,99625.84
2023-03-24T18:13:42.965Z,99625.00
2023-03-24T18:16:20.750Z,99631.28
2023-03-24T18:18:50.276Z,99626.03
2023-03-24T18:21:18.205Z,99631.25
2023-03-24T18:23:46.538Z,99631.25
2023-03-24T18:26:14.162Z,99634.75
2023-03-24T18:28:42.035Z,99638.22
2023-03-24T18:31:20.882Z,99635.69
2023-03-24T18:33:49.282Z,99636.63
2023-03-24T18:36:21.070Z,99631.41
2023-03-24T18:38:49.000Z,99632.13
2023-03-24T18:41:18.038Z,99639.22
2023-03-24T18:43:47.627Z,99641.03
2023-03-24T18:46:14.909Z,99641.88
2023-03-24T18:48:42.661Z,99643.72
2023-03-24T18:51:11.174Z,99633.28
2023-03-24T18:53:38.041Z,99627.25
2023-03-24T18:56:06.034Z,99631.56
2023-03-24T18:58:33.671Z,99625.56
2023-03-24T19:01:06.903Z,99626.41
2023-03-24T19:03:35.621Z,99630.69
2023-03-24T19:06:06.940Z,99628.91
2023-03-24T19:08:36.003Z,99632.41
2023-03-24T19:11:02.853Z,99629.91
2023-03-24T19:13:29.972Z,99631.63
2023-03-24T19:15:56.609Z,99630.78
2023-03-24T19:18:23.846Z,99633.44
2023-03-24T19:20:54.486Z,99626.56
2023-03-24T19:23:21.367Z,99627.41
2023-03-24T19:25:48.662Z,99608.28
2023-03-24T19:28:16.514Z,99618.69
2023-03-24T19:30:43.231Z,99623.97
2023-03-24T19:33:11.453Z,99621.38
2023-03-24T19:35:39.363Z,99614.41
2023-03-24T19:38:06.516Z,99617.00
2023-03-24T19:40:33.490Z,99610.97
2023-03-24T19:43:00.183Z,99612.75
2023-03-24T19:45:27.041Z,99610.19
2023-03-24T19:47:53.656Z,99604.06
2023-03-24T19:50:20.529Z,99604.06
2023-03-24T19:52:47.727Z,99597.19
2023-03-24T19:55:14.680Z,99598.06
2023-03-24T19:57:41.388Z,99595.53
2023-03-24T20:00:10.205Z,99593.81
2023-03-24T20:02:38.164Z,99587.72
2023-03-24T20:05:06.820Z,99592.03
2023-03-24T20:07:33.920Z,99587.69
2023-03-24T20:10:00.645Z,99588.63
2023-03-24T20:12:27.974Z,99592.94
2023-03-24T20:14:55.639Z,99581.69
2023-03-24T20:17:26.351Z,99586.00
2023-03-24T20:19:54.593Z,99577.31
2023-03-24T20:22:21.731Z,99571.28
2023-03-24T20:24:48.555Z,99564.38
2023-03-24T20:27:16.098Z,99563.53
2023-03-24T20:29:42.782Z,99566.94
2023-03-24T20:32:12.167Z,99571.28
2023-03-24T20:34:39.418Z,99573.84
2023-03-24T20:37:07.151Z,99560.78
2023-03-24T20:39:34.311Z,99562.50
2023-03-24T20:42:01.113Z,99563.44
2023-03-24T20:44:28.117Z,99576.44
2023-03-24T20:46:57.123Z,99565.16
2023-03-24T20:49:24.300Z,99558.19
2023-03-24T20:51:51.560Z,99562.50
2023-03-24T20:54:18.375Z,99565.22
2023-03-24T20:56:45.063Z,99561.75
2023-03-24T20:59:13.800Z,99554.72
2023-03-24T21:01:42.210Z,99556.50
2023-03-24T21:04:10.017Z,99559.09
2023-03-24T21:06:40.629Z,99553.84
2023-03-24T21:09:07.546Z,99559.16
2023-03-24T21:11:34.341Z,99550.44
2023-03-24T21:14:02.624Z,99548.59
2023-03-24T21:16:33.993Z,99545.91
2023-03-24T21:19:01.924Z,99551.13
2023-03-24T21:21:29.698Z,99552.00
2023-03-24T21:23:57.477Z,99540.66
2023-03-24T21:26:25.297Z,99537.25
2023-03-24T21:28:52.931Z,99534.53
2023-03-24T21:31:23.193Z,99538.88
2023-03-24T21:33:51.171Z,99544.91
2023-03-24T21:36:18.579Z,99541.56
2023-03-24T21:38:46.009Z,99542.44
2023-03-24T21:41:12.687Z,99555.38
2023-03-24T21:43:40.509Z,99544.19
2023-03-24T21:46:20.351Z,99545.91
2023-03-24T21:48:51.821Z,99543.16
2023-03-24T21:51:24.574Z,99532.84
2023-03-24T21:53:55.668Z,99539.91
2023-03-24T21:56:23.206Z,99540.69
2023-03-24T21:58:49.770Z,99538.91
2023-03-24T22:01:16.763Z,99544.25
2023-03-24T22:03:43.512Z,99545.06
2023-03-24T22:06:10.747Z,99537.16
2023-03-24T22:08:39.057Z,99524.94
2023-03-24T22:11:06.102Z,99532.09
2023-03-24T22:13:33.783Z,99526.00
2023-03-24T22:16:03.062Z,99525.91
2023-03-24T22:18:32.049Z,99530.31
2023-03-24T22:21:03.111Z,99524.31
2023-03-24T22:23:33.177Z,99538.13
2023-03-24T22:26:05.302Z,99543.31
2023-03-24T22:28:33.770Z,99545.13
2023-03-24T22:31:08.339Z,99542.50
2023-03-24T22:33:36.181Z,99545.84
2023-03-24T22:36:03.896Z,99541.63
2023-03-24T22:38:31.513Z,99533.91
2023-03-24T22:40:59.836Z,99539.03
2023-03-24T22:43:28.046Z,99534.72
2023-03-24T22:45:54.893Z,99540.03
2023-03-24T22:48:22.245Z,99533.03
2023-03-24T22:50:49.229Z,99537.31
2023-03-24T22:53:16.114Z,99535.56
2023-03-24T22:55:44.869Z,99546.91
2023-03-24T22:58:15.460Z,99544.22
2023-03-24T23:00:43.287Z,99551.31
2023-03-24T23:03:10.352Z,99552.09
2023-03-24T23:05:45.379Z,99548.75
2023-03-24T23:08:15.479Z,99544.38
2023-03-24T23:10:44.322Z,99540.03
2023-03-24T23:13:12.210Z,99545.19
2023-03-24T23:15:39.964Z,99538.25
2023-03-24T23:18:06.790Z,99546.00
2023-03-24T23:20:34.409Z,99547.78
2023-03-24T23:23:01.435Z,99544.31
2023-03-24T23:25:30.977Z,99540.84
2023-03-24T23:27:58.146Z,99544.25
2023-03-24T23:30:24.787Z,99538.31
2023-03-24T23:32:51.716Z,99547.88
2023-03-24T23:35:18.772Z,99541.81
2023-03-24T23:37:45.611Z,99539.25
2023-03-24T23:40:14.681Z,99533.16
2023-03-24T23:42:43.682Z,99540.16
2023-03-24T23:45:15.096Z,99534.09
2023-03-24T23:47:43.201Z,99541.00
2023-03-24T23:50:10.784Z,99550.50
2023-03-24T23:52:41.118Z,99538.47
2023-03-24T23:55:10.444Z,99543.59
2023-03-24T23:57:39.312Z,99546.16
